createdAt,value
2023-04-19T00:01:56.969Z,99.90
2023-04-19T00:04:24.345Z,99.90
2023-04-19T00:06:53.972Z,99.90
2023-04-19T00:09:23.144Z,99.90
2023-04-19T00:11:50.081Z,99.90
2023-04-19T00:14:19.315Z,99.90
2023-04-19T00:16:48.821Z,99.90
2023-04-19T00:19:18.121Z,99.90
2023-04-19T00:21:50.328Z,99.90
2023-04-19T00:24:17.896Z,99.90
2023-04-19T00:26:46.363Z,99.90
2023-04-19T00:29:15.504Z,99.90
2023-04-19T00:31:42.702Z,99.90
2023-04-19T00:34:14.125Z,99.90
2023-04-19T00:36:41.575Z,99.90
2023-04-19T00:39:11.455Z,99.90
2023-04-19T00:41:39.757Z,99.90
2023-04-19T00:44:06.668Z,99.90
2023-04-19T00:46:33.811Z,99.90
2023-04-19T00:49:00.903Z,99.90
2023-04-19T00:51:31.430Z,99.90
2023-04-19T00:54:04.683Z,99.90
2023-04-19T00:56:35.190Z,99.90
2023-04-19T00:59:02.543Z,99.90
2023-04-19T01:01:31.050Z,99.90
2023-04-19T01:03:58.355Z,99.90
2023-04-19T01:06:27.967Z,99.90
2023-04-19T01:08:54.798Z,99.90
2023-04-19T01:11:30.261Z,99.90
2023-04-19T01:13:58.606Z,99.90
2023-04-19T01:16:28.860Z,99.90
2023-04-19T01:18:56.406Z,99.90
2023-04-19T01:21:23.297Z,99.90
2023-04-19T01:23:51.071Z,99.90
2023-04-19T01:26:18.399Z,99.90
2023-04-19T01:28:47.268Z,99.90
2023-04-19T01:31:14.238Z,99.90
2023-04-19T01:33:41.713Z,99.90
2023-04-19T01:36:09.619Z,99.90
2023-04-19T01:38:41.262Z,99.90
2023-04-19T01:41:09.787Z,99.90
2023-04-19T01:43:38.897Z,99.90
2023-04-19T01:46:05.881Z,99.90
2023-04-19T01:48:32.630Z,99.90
2023-04-19T01:51:00.072Z,99.90
2023-04-19T01:53:26.925Z,99.90
2023-04-19T01:55:55.511Z,99.90
2023-04-19T01:58:22.361Z,99.90
2023-04-19T02:00:51.595Z,99.90
2023-04-19T02:03:18.805Z,99.90
2023-04-19T02:05:45.882Z,99.90
2023-04-19T02:08:15.300Z,99.90
2023-04-19T02:10:42.469Z,99.90
2023-04-19T02:13:11.803Z,99.90
2023-04-19T02:15:39.567Z,99.90
2023-04-19T02:18:07.100Z,99.90
2023-04-19T02:20:34.376Z,99.90
2023-04-19T02:23:01.221Z,99.90
2023-04-19T02:25:29.472Z,99.90
2023-04-19T02:27:56.474Z,99.90
2023-04-19T02:30:23.592Z,99.90
2023-04-19T02:32:50.740Z,99.90
2023-04-19T02:35:20.256Z,99.90
2023-04-19T02:37:47.095Z,99.90
2023-04-19T02:40:14.263Z,99.90
2023-04-19T02:42:41.195Z,99.90
2023-04-19T02:45:08.378Z,99.90
2023-04-19T02:47:38.115Z,99.90
2023-04-19T02:50:07.747Z,99.90
2023-04-19T02:52:40.053Z,99.90
2023-04-19T02:55:07.133Z,99.90
2023-04-19T02:57:34.140Z,99.90
2023-04-19T03:00:01.215Z,99.90
2023-04-19T03:02:28.501Z,99.90
2023-04-19T03:04:57.001Z,99.90
2023-04-19T03:07:25.249Z,99.90
2023-04-19T03:09:53.416Z,99.90
2023-04-19T03:12:21.050Z,99.90
2023-04-19T03:14:47.977Z,99.90
2023-04-19T03:17:14.944Z,99.90
2023-04-19T03:19:41.857Z,99.90
2023-04-19T03:22:08.702Z,99.90
2023-04-19T03:24:38.256Z,99.90
2023-04-19T03:27:23.209Z,99.90
2023-04-19T03:29:56.093Z,99.90
2023-04-19T03:32:23.596Z,99.90
2023-04-19T03:34:53.473Z,99.90
2023-04-19T03:37:21.369Z,99.90
2023-04-19T03:39:48.248Z,99.90
2023-04-19T03:42:20.772Z,99.90
2023-04-19T03:45:02.718Z,99.90
2023-04-19T03:47:31.985Z,99.90
2023-04-19T03:50:01.888Z,99.90
2023-04-19T03:52:31.548Z,99.90
2023-04-19T03:55:00.926Z,99.90
2023-04-19T04:19:56.906Z,99.90
2023-04-19T04:22:27.833Z,99.90
2023-04-19T04:24:54.983Z,99.90
2023-04-19T04:27:26.846Z,99.90
2023-04-19T04:29:56.787Z,99.90
2023-04-19T04:32:24.293Z,99.90
2023-04-19T04:34:57.922Z,99.90
2023-04-19T04:37:40.306Z,99.90
2023-04-19T04:40:08.892Z,99.90
2023-04-19T04:42:38.060Z,99.90
2023-04-19T04:45:08.346Z,99.90
2023-04-19T04:47:39.016Z,99.90
2023-04-19T04:50:07.990Z,99.90
2023-04-19T04:52:37.039Z,99.90
2023-04-19T04:55:11.197Z,99.90
2023-04-19T04:57:42.816Z,99.90
2023-04-19T05:00:18.753Z,99.90
2023-04-19T05:02:55.091Z,99.90
2023-04-19T05:05:23.486Z,99.90
2023-04-19T05:07:50.470Z,99.90
2023-04-19T05:10:19.858Z,99.90
2023-04-19T05:12:47.786Z,99.90
2023-04-19T05:15:15.023Z,99.90
2023-04-19T05:17:48.067Z,99.90
2023-04-19T05:20:15.249Z,99.90
2023-04-19T05:22:43.149Z,99.90
2023-04-19T05:25:15.371Z,99.90
2023-04-19T05:27:42.363Z,99.90
2023-04-19T05:30:11.714Z,99.90
2023-04-19T05:32:45.069Z,99.90
2023-04-19T05:35:14.155Z,99.90
2023-04-19T05:37:41.615Z,99.90
2023-04-19T05:40:11.658Z,99.90
2023-04-19T05:42:38.725Z,99.90
2023-04-19T05:45:07.261Z,99.90
2023-04-19T05:47:36.729Z,99.90
2023-04-19T05:50:18.033Z,99.90
2023-04-19T05:52:51.553Z,99.90
2023-04-19T05:55:20.729Z,99.90
2023-04-19T05:57:47.637Z,99.90
2023-04-19T06:00:16.093Z,99.90
2023-04-19T06:02:51.098Z,99.90
2023-04-19T06:05:18.435Z,99.90
2023-04-19T06:07:54.675Z,99.90
2023-04-19T06:10:31.194Z,99.90
2023-04-19T06:13:04.291Z,99.90
2023-04-19T06:15:33.621Z,99.90
2023-04-19T06:18:00.606Z,99.90
2023-04-19T06:20:30.275Z,99.90
2023-04-19T06:22:59.549Z,99.90
2023-04-19T06:25:26.372Z,99.90
2023-04-19T06:27:53.139Z,99.90
2023-04-19T06:30:19.997Z,99.90
2023-04-19T06:32:47.040Z,99.90
2023-04-19T06:35:14.181Z,99.90
2023-04-19T06:37:41.761Z,99.90
2023-04-19T06:40:11.558Z,99.90
2023-04-19T06:42:38.537Z,99.90
2023-04-19T06:45:07.015Z,99.90
2023-04-19T06:47:35.409Z,99.90
2023-04-19T06:50:07.960Z,99.90
2023-04-19T06:52:34.772Z,99.90
2023-04-19T06:55:01.601Z,99.90
2023-04-19T06:57:28.422Z,99.90
2023-04-19T06:59:55.711Z,99.90
2023-04-19T07:02:22.806Z,99.90
2023-04-19T07:04:50.044Z,99.90
2023-04-19T07:07:17.701Z,99.90
2023-04-19T07:09:46.815Z,99.90
2023-04-19T07:12:13.595Z,99.90
2023-04-19T07:14:40.464Z,99.90
2023-04-19T07:17:07.428Z,99.90
2023-04-19T07:19:38.670Z,99.90
2023-04-19T07:22:06.356Z,99.90
2023-04-19T07:24:33.181Z,99.90
2023-04-19T07:27:02.342Z,99.90
2023-04-19T07:29:31.549Z,99.90
2023-04-19T07:32:01.832Z,99.90
2023-04-19T07:34:28.760Z,99.90
2023-04-19T07:36:55.634Z,99.90
2023-04-19T07:39:22.972Z,99.90
2023-04-19T07:41:49.693Z,99.90
2023-04-19T07:44:19.258Z,99.90
2023-04-19T07:46:46.391Z,99.90
2023-04-19T07:49:13.743Z,99.90
2023-04-19T07:51:40.530Z,99.90
2023-04-19T07:54:07.818Z,99.90
2023-04-19T07:56:35.000Z,99.90
2023-04-19T07:59:08.613Z,99.90
2023-04-19T08:01:37.129Z,99.90
2023-04-19T08:04:04.782Z,99.90
2023-04-19T08:06:32.645Z,99.90
2023-04-19T08:08:59.497Z,99.90
2023-04-19T08:11:26.445Z,99.90
2023-04-19T08:14:06.152Z,99.90
2023-04-19T08:19:08.349Z,99.90
2023-04-19T08:21:41.266Z,99.90
2023-04-19T08:24:08.828Z,99.90
2023-04-19T08:26:39.307Z,99.70
2023-04-19T08:29:06.169Z,99.50
2023-04-19T08:31:35.459Z,99.90
2023-04-19T08:34:02.807Z,99.60
2023-04-19T08:36:39.048Z,98.80
2023-04-19T08:39:18.041Z,98.00
2023-04-19T08:42:06.969Z,98.10
2023-04-19T08:44:54.322Z,97.70
2023-04-19T08:47:31.246Z,97.70
2023-04-19T08:50:24.219Z,97.20
2023-04-19T08:53:05.205Z,97.70
2023-04-19T08:56:03.389Z,97.50
2023-04-19T08:58:50.215Z,97.50
2023-04-19T09:01:33.875Z,96.60
2023-04-19T09:04:26.551Z,96.00
2023-04-19T09:06:55.570Z,95.30
2023-04-19T09:09:35.593Z,95.50
2023-04-19T09:12:16.530Z,94.50
2023-04-19T09:14:53.811Z,95.20
2023-04-19T09:17:29.357Z,96.00
2023-04-19T09:19:56.212Z,95.80
2023-04-19T09:22:25.775Z,94.80
2023-04-19T09:25:22.792Z,95.50
2023-04-19T09:27:41.678Z,94.30
2023-04-19T09:30:17.597Z,93.80
2023-04-19T09:32:50.928Z,94.20
2023-04-19T09:35:17.826Z,94.80
2023-04-19T09:38:05.682Z,94.40
2023-04-19T09:40:33.829Z,95.30
2023-04-19T09:43:12.922Z,95.20
2023-04-19T09:45:47.986Z,94.70
2023-04-19T09:48:17.147Z,94.90
2023-04-19T09:50:58.877Z,94.10
2023-04-19T09:53:28.172Z,94.60
2023-04-19T09:56:01.292Z,93.90
2023-04-19T09:58:38.087Z,93.80
2023-04-19T10:01:15.813Z,94.30
2023-04-19T10:03:45.453Z,93.90
2023-04-19T10:06:31.819Z,93.40
2023-04-19T10:09:05.179Z,92.40
2023-04-19T10:11:38.655Z,91.70
2023-04-19T10:14:07.447Z,91.50
2023-04-19T10:16:35.066Z,91.40
2023-04-19T10:19:08.247Z,91.60
2023-04-19T10:21:37.074Z,92.60
2023-04-19T10:24:04.473Z,93.30
2023-04-19T10:26:51.399Z,93.50
2023-04-19T10:29:38.169Z,93.20
2023-04-19T10:32:05.943Z,92.50
2023-04-19T10:34:42.545Z,91.60
2023-04-19T10:37:15.147Z,90.90
2023-04-19T10:39:45.057Z,88.80
2023-04-19T10:42:13.109Z,86.40
2023-04-19T10:44:40.198Z,87.40
2023-04-19T10:47:07.033Z,86.70
2023-04-19T10:49:44.588Z,85.20
2023-04-19T10:52:27.548Z,84.10
2023-04-19T10:54:57.516Z,84.10
2023-04-19T10:57:25.368Z,82.00
2023-04-19T11:00:11.308Z,81.90
2023-04-19T11:02:38.335Z,81.80
2023-04-19T11:05:08.742Z,78.30
2023-04-19T11:07:39.084Z,80.60
2023-04-19T11:10:08.595Z,81.10
2023-04-19T11:12:37.995Z,83.00
2023-04-19T11:15:05.609Z,84.50
2023-04-19T11:17:32.646Z,82.40
2023-04-19T11:20:07.200Z,82.10
2023-04-19T11:22:38.427Z,81.10
2023-04-19T11:25:09.363Z,80.70
2023-04-19T11:27:36.540Z,80.60
2023-04-19T11:30:12.924Z,81.90
2023-04-19T11:32:46.877Z,80.90
2023-04-19T11:35:14.084Z,81.10
2023-04-19T11:37:43.278Z,83.30
2023-04-19T11:40:16.555Z,81.70
2023-04-19T11:42:43.469Z,80.80
2023-04-19T11:45:18.645Z,80.90
2023-04-19T11:47:56.235Z,78.50
2023-04-19T11:50:42.958Z,81.00
2023-04-19T11:53:22.728Z,82.00
2023-04-19T11:55:51.668Z,81.70
2023-04-19T11:58:24.103Z,81.70
2023-04-19T12:00:51.404Z,81.90
2023-04-19T12:03:25.696Z,83.00
2023-04-19T12:05:54.662Z,82.60
2023-04-19T12:08:34.991Z,81.90
2023-04-19T12:11:03.649Z,79.80
2023-04-19T12:13:31.631Z,82.70
2023-04-19T12:15:58.999Z,82.70
2023-04-19T12:18:30.767Z,84.60
2023-04-19T12:21:01.530Z,85.20
2023-04-19T12:23:28.534Z,86.40
2023-04-19T12:25:55.397Z,87.20
2023-04-19T12:28:22.699Z,88.10
2023-04-19T12:30:50.221Z,87.30
2023-04-19T12:33:17.242Z,86.00
2023-04-19T12:35:45.110Z,86.10
2023-04-19T12:38:11.983Z,87.20
2023-04-19T12:40:39.170Z,86.90
2023-04-19T12:43:08.185Z,87.60
2023-04-19T12:45:35.167Z,87.50
2023-04-19T12:48:02.057Z,87.30
2023-04-19T12:50:29.018Z,88.80
2023-04-19T12:52:58.105Z,90.10
2023-04-19T12:55:25.053Z,90.30
2023-04-19T12:57:52.035Z,91.10
2023-04-19T13:00:19.431Z,91.50
2023-04-19T13:02:48.349Z,92.50
2023-04-19T13:05:15.506Z,92.10
2023-04-19T13:07:42.461Z,92.80
2023-04-19T13:10:09.553Z,93.20
2023-04-19T13:12:36.724Z,93.80
2023-04-19T13:15:05.065Z,94.70
2023-04-19T13:17:32.227Z,95.20
2023-04-19T13:19:59.169Z,95.30
2023-04-19T13:22:26.716Z,95.60
2023-04-19T13:24:53.985Z,96.10
2023-04-19T13:27:21.104Z,97.00
2023-04-19T13:29:50.427Z,98.20
2023-04-19T13:32:17.340Z,98.80
2023-04-19T13:34:44.218Z,99.00
2023-04-19T13:37:18.127Z,99.10
2023-04-19T13:39:45.847Z,99.70
2023-04-19T13:42:14.103Z,99.90
2023-04-19T13:44:41.361Z,99.90
2023-04-19T13:47:08.264Z,99.90
2023-04-19T13:49:35.054Z,99.90
2023-04-19T13:52:04.028Z,99.90
2023-04-19T13:54:31.023Z,99.90
2023-04-19T13:56:57.934Z,99.90
2023-04-19T13:59:26.179Z,99.90
2023-04-19T14:01:55.826Z,99.90
2023-04-19T14:04:23.204Z,99.90
2023-04-19T14:06:51.272Z,99.90
2023-04-19T14:09:18.150Z,99.90
2023-04-19T14:11:45.024Z,99.90
2023-04-19T14:14:11.766Z,99.90
2023-04-19T14:16:38.743Z,99.90
2023-04-19T14:19:05.716Z,99.90
2023-04-19T14:21:32.780Z,99.90
2023-04-19T14:23:59.719Z,99.90
2023-04-19T14:26:27.736Z,99.90
2023-04-19T14:28:54.792Z,99.90
2023-04-19T14:31:21.818Z,99.90
2023-04-19T14:33:48.708Z,99.90
2023-04-19T14:36:15.503Z,99.90
2023-04-19T14:38:42.379Z,99.90
2023-04-19T14:41:09.285Z,99.90
2023-04-19T14:43:36.138Z,99.90
2023-04-19T14:46:03.070Z,99.90
2023-04-19T14:48:30.190Z,99.90
2023-04-19T14:50:57.055Z,99.90
2023-04-19T14:53:26.066Z,99.90
2023-04-19T14:55:52.918Z,99.90
2023-04-19T14:58:19.938Z,99.90
2023-04-19T15:00:49.741Z,99.90
2023-04-19T15:03:17.564Z,99.90
2023-04-19T15:05:44.900Z,99.90
2023-04-19T15:08:29.136Z,99.90
2023-04-19T15:10:56.917Z,99.90
2023-04-19T15:13:23.701Z,99.90
2023-04-19T15:15:51.274Z,99.90
2023-04-19T15:18:18.176Z,99.90
2023-04-19T15:20:50.370Z,99.90
2023-04-19T15:23:17.253Z,99.90
2023-04-19T15:25:44.688Z,99.90
2023-04-19T15:28:11.549Z,99.90
2023-04-19T15:30:41.370Z,99.90
2023-04-19T15:33:11.113Z,99.90
2023-04-19T15:35:40.518Z,99.90
2023-04-19T15:38:07.432Z,99.90
2023-04-19T15:40:38.413Z,99.90
2023-04-19T15:43:05.306Z,99.90
2023-04-19T15:45:32.564Z,99.90
2023-04-19T15:48:04.289Z,99.90
2023-04-19T15:50:36.100Z,99.90
2023-04-19T15:53:03.441Z,99.90
2023-04-19T15:55:30.577Z,99.90
2023-04-19T15:57:57.722Z,99.90
2023-04-19T16:00:24.656Z,99.90
2023-04-19T16:02:51.692Z,99.90
2023-04-19T16:05:18.751Z,99.90
2023-04-19T16:07:45.531Z,99.90
2023-04-19T16:10:12.861Z,99.90
2023-04-19T16:12:39.963Z,99.90
2023-04-19T16:15:11.106Z,99.90
2023-04-19T16:17:38.031Z,99.90
2023-04-19T16:20:05.234Z,99.90
2023-04-19T16:22:33.013Z,99.90
2023-04-19T16:24:59.779Z,99.90
2023-04-19T16:27:27.273Z,99.90
2023-04-19T16:29:56.530Z,99.90
2023-04-19T16:32:23.407Z,99.90
2023-04-19T16:34:50.608Z,99.90
2023-04-19T16:37:18.242Z,99.90
2023-04-19T16:39:45.393Z,99.90
2023-04-19T16:42:12.269Z,99.90
2023-04-19T16:44:39.354Z,99.90
2023-04-19T16:47:55.462Z,99.90
2023-04-19T16:50:47.438Z,99.90
2023-04-19T16:53:42.920Z,99.90
2023-04-19T16:56:22.756Z,99.90
2023-04-19T16:59:05.454Z,99.90
2023-04-19T17:01:32.323Z,99.90
2023-04-19T17:04:05.734Z,99.90
2023-04-19T17:06:34.434Z,99.90
2023-04-19T17:09:28.957Z,99.90
2023-04-19T17:11:56.650Z,99.90
2023-04-19T17:14:23.922Z,99.90
2023-04-19T17:17:06.338Z,99.90
2023-04-19T17:19:34.546Z,99.90
2023-04-19T17:22:05.443Z,99.90
2023-04-19T17:24:33.368Z,99.90
2023-04-19T17:27:01.023Z,99.90
2023-04-19T17:29:31.444Z,99.90
2023-04-19T17:32:11.695Z,99.90
2023-04-19T17:34:39.379Z,99.90
2023-04-19T17:37:06.496Z,99.90
2023-04-19T17:39:33.723Z,99.90
2023-04-19T17:42:02.247Z,99.90
2023-04-19T17:44:31.694Z,99.90
2023-04-19T17:46:59.061Z,99.90
2023-04-19T17:49:28.595Z,99.90
2023-04-19T17:51:56.242Z,99.90
2023-04-19T17:54:23.272Z,99.90
2023-04-19T17:56:56.592Z,99.90
2023-04-19T17:59:25.310Z,99.90
2023-04-19T18:01:52.249Z,99.90
2023-04-19T18:04:20.287Z,99.90
2023-04-19T18:06:47.915Z,99.90
2023-04-19T18:09:15.667Z,99.90
2023-04-19T18:11:42.970Z,99.90
2023-04-19T18:14:09.761Z,99.90
2023-04-19T18:16:39.112Z,99.90
2023-04-19T18:19:06.222Z,99.90
2023-04-19T18:21:35.198Z,99.90
2023-04-19T18:24:02.510Z,99.90
2023-04-19T18:26:39.930Z,99.90
2023-04-19T18:29:10.095Z,99.90
2023-04-19T18:31:37.559Z,99.90
2023-04-19T18:34:06.872Z,99.90
2023-04-19T18:36:35.252Z,99.90
2023-04-19T18:39:02.337Z,99.90
2023-04-19T18:41:29.132Z,99.90
2023-04-19T18:44:31.476Z,99.90
2023-04-19T18:46:48.025Z,99.90
2023-04-19T18:49:15.519Z,99.90
2023-04-19T18:51:51.406Z,99.90
2023-04-19T18:54:20.934Z,99.90
2023-04-19T18:57:19.012Z,99.90
2023-04-19T18:59:34.555Z,99.90
2023-04-19T19:02:01.423Z,99.90
2023-04-19T19:04:56.918Z,99.90
2023-04-19T19:08:29.610Z,99.90
2023-04-19T19:17:41.391Z,99.90
2023-04-19T19:20:09.963Z,99.90
2023-04-19T19:22:36.806Z,99.90
2023-04-19T19:25:05.952Z,99.90
2023-04-19T19:27:32.929Z,99.90
2023-04-19T19:29:59.948Z,99.90
2023-04-19T19:32:29.239Z,99.90
2023-04-19T19:35:02.112Z,99.90
2023-04-19T19:37:55.468Z,99.90
2023-04-19T19:40:23.038Z,99.90
2023-04-19T19:42:50.031Z,99.90
2023-04-19T19:45:18.900Z,99.90
2023-04-19T19:47:49.534Z,99.90
2023-04-19T19:52:47.360Z,99.90
2023-04-19T19:55:14.390Z,99.90
2023-04-19T20:02:53.991Z,99.90
2023-04-19T20:05:23.035Z,99.90
2023-04-19T20:10:20.733Z,99.90
2023-04-19T20:12:48.038Z,99.90
2023-04-19T20:15:14.965Z,99.90
2023-04-19T20:17:42.089Z,99.90
2023-04-19T20:20:11.571Z,99.90
2023-04-19T20:22:38.583Z,99.90
2023-04-19T20:25:05.794Z,99.90
2023-04-19T20:27:33.275Z,99.90
2023-04-19T20:30:00.971Z,99.90
2023-04-19T20:32:28.015Z,99.90
2023-04-19T20:34:55.019Z,99.90
2023-04-19T20:37:22.924Z,99.90
2023-04-19T20:39:50.276Z,99.90
2023-04-19T20:42:17.417Z,99.90
2023-04-19T20:44:44.632Z,99.90
2023-04-19T20:47:13.978Z,99.90
2023-04-19T20:49:41.646Z,99.90
2023-04-19T20:52:08.728Z,99.90
2023-04-19T20:54:36.587Z,99.90
2023-04-19T20:57:04.660Z,99.90
2023-04-19T20:59:31.623Z,99.90
2023-04-19T21:01:58.719Z,99.90
2023-04-19T21:04:26.269Z,99.90
2023-04-19T21:06:55.704Z,99.90
2023-04-19T21:09:22.680Z,99.90
2023-04-19T21:11:51.994Z,99.90
2023-04-19T21:14:21.345Z,99.90
2023-04-19T21:16:48.092Z,99.90
2023-04-19T21:19:15.666Z,99.90
2023-04-19T21:21:42.745Z,99.90
2023-04-19T21:24:12.126Z,99.90
2023-04-19T21:26:41.383Z,99.90
2023-04-19T21:29:10.563Z,99.90
2023-04-19T21:31:37.378Z,99.90
2023-04-19T21:34:06.841Z,99.90
2023-04-19T21:36:33.639Z,99.90
2023-04-19T21:39:00.497Z,99.90
2023-04-19T21:41:27.275Z,99.90
2023-04-19T21:43:54.081Z,99.90
2023-04-19T21:46:25.710Z,99.90
2023-04-19T21:48:55.034Z,99.90
2023-04-19T21:51:22.684Z,99.90
2023-04-19T21:53:51.876Z,99.90
2023-04-19T21:56:18.924Z,99.90
2023-04-19T21:58:45.933Z,99.90
2023-04-19T22:01:12.808Z,99.90
2023-04-19T22:03:39.956Z,99.90
2023-04-19T22:06:08.489Z,99.90
2023-04-19T22:08:35.327Z,99.90
2023-04-19T22:11:03.655Z,99.90
2023-04-19T22:13:33.239Z,99.90
2023-04-19T22:16:02.275Z,99.90
2023-04-19T22:18:29.213Z,99.90
2023-04-19T22:20:56.323Z,99.90
2023-04-19T22:23:23.131Z,99.90
2023-04-19T22:25:49.974Z,99.90
2023-04-19T22:28:20.138Z,99.90
2023-04-19T22:30:46.910Z,99.90
2023-04-19T22:33:13.874Z,99.90
2023-04-19T22:35:42.158Z,99.90
2023-04-19T22:38:09.031Z,99.90
2023-04-19T22:40:35.917Z,99.90
2023-04-19T22:43:02.749Z,99.90
2023-04-19T22:45:29.701Z,99.90
2023-04-19T22:47:56.713Z,99.90
2023-04-19T22:50:23.645Z,99.90
2023-04-19T22:52:52.860Z,99.90
2023-04-19T22:55:22.178Z,99.90
2023-04-19T22:57:51.084Z,99.90
2023-04-19T23:00:18.480Z,99.90
2023-04-19T23:02:45.287Z,99.90
2023-04-19T23:05:12.530Z,99.90
2023-04-19T23:07:43.137Z,99.90
2023-04-19T23:10:10.400Z,99.90
2023-04-19T23:12:38.800Z,99.90
2023-04-19T23:15:06.033Z,99.90
2023-04-19T23:17:39.295Z,99.90
2023-04-19T23:20:07.270Z,99.90
2023-04-19T23:22:34.191Z,99.90
2023-04-19T23:25:01.059Z,99.90
2023-04-19T23:27:28.044Z,99.90
2023-04-19T23:29:57.353Z,99.90
2023-04-19T23:32:24.111Z,99.90
2023-04-19T23:34:51.161Z,99.90
2023-04-19T23:37:17.915Z,99.90
2023-04-19T23:39:44.776Z,99.90
2023-04-19T23:42:11.505Z,99.90
2023-04-19T23:44:39.002Z,99.90
2023-04-19T23:47:08.636Z,99.90
2023-04-19T23:49:35.413Z,99.90
2023-04-19T23:52:05.095Z,99.90
2023-04-19T23:54:31.912Z,99.90
2023-04-19T23:56:59.609Z,99.90
2023-04-19T23:59:29.585Z,99.90
